sensor_id;sensor_type;location;lat;lon;timestamp;pressure;altitude;pressure_sealevel;temperature;humidity
42431;BME280;28070;47.462;19.036;2022-08-05T00:01:31;100201.00;;;25.11;40.26
42431;BME280;28070;47.462;19.036;2022-08-05T00:04:15;100203.84;;;25.10;40.25
42431;BME280;28070;47.462;19.036;2022-08-05T00:06:43;100196.06;;;25.07;40.89
42431;BME280;28070;47.462;19.036;2022-08-05T00:09:17;100197.91;;;25.06;40.74
42431;BME280;28070;47.462;19.036;2022-08-05T00:11:48;100199.31;;;25.01;40.80
42431;BME280;28070;47.462;19.036;2022-08-05T00:14:25;100197.59;;;25.00;40.38
42431;BME280;28070;47.462;19.036;2022-08-05T00:16:57;100199.31;;;25.01;40.76
42431;BME280;28070;47.462;19.036;2022-08-05T00:19:27;100207.28;;;24.92;40.51
42431;BME280;28070;47.462;19.036;2022-08-05T00:21:59;100200.44;;;24.98;40.87
42431;BME280;28070;47.462;19.036;2022-08-05T00:24:27;100195.34;;;24.95;40.27
42431;BME280;28070;47.462;19.036;2022-08-05T00:26:58;100208.69;;;24.97;41.08
42431;BME280;28070;47.462;19.036;2022-08-05T00:29:30;100197.34;;;24.93;40.95
42431;BME280;28070;47.462;19.036;2022-08-05T00:32:04;100200.44;;;24.88;41.13
42431;BME280;28070;47.462;19.036;2022-08-05T00:34:40;100203.47;;;24.85;40.97
42431;BME280;28070;47.462;19.036;2022-08-05T00:37:29;100200.34;;;24.80;41.54
42431;BME280;28070;47.462;19.036;2022-08-05T00:40:17;100200.22;;;24.72;41.91
42431;BME280;28070;47.462;19.036;2022-08-05T00:42:57;100193.41;;;24.68;41.59
42431;BME280;28070;47.462;19.036;2022-08-05T00:45:25;100190.25;;;24.63;41.09
42431;BME280;28070;47.462;19.036;2022-08-05T00:48:09;100193.69;;;24.65;41.00
42431;BME280;28070;47.462;19.036;2022-08-05T00:50:38;100200.66;;;24.68;42.02
42431;BME280;28070;47.462;19.036;2022-08-05T00:53:11;100188.56;;;24.62;42.07
42431;BME280;28070;47.462;19.036;2022-08-05T00:56:00;100186.00;;;24.51;42.84
42431;BME280;28070;47.462;19.036;2022-08-05T00:58:30;100188.59;;;24.43;42.67
42431;BME280;28070;47.462;19.036;2022-08-05T01:01:00;100186.28;;;24.38;43.16
42431;BME280;28070;47.462;19.036;2022-08-05T01:03:34;100182.84;;;24.26;43.41
42431;BME280;28070;47.462;19.036;2022-08-05T01:06:03;100187.69;;;24.23;43.71
42431;BME280;28070;47.462;19.036;2022-08-05T01:08:37;100186.41;;;24.17;43.51
42431;BME280;28070;47.462;19.036;2022-08-05T01:11:16;100179.59;;;24.03;44.21
42431;BME280;28070;47.462;19.036;2022-08-05T01:14:01;100196.03;;;23.91;44.85
42431;BME280;28070;47.462;19.036;2022-08-05T01:16:38;100191.47;;;23.82;45.26
42431;BME280;28070;47.462;19.036;2022-08-05T01:19:18;100182.97;;;23.76;45.46
42431;BME280;28070;47.462;19.036;2022-08-05T01:22:24;100191.00;;;23.67;45.52
42431;BME280;28070;47.462;19.036;2022-08-05T01:25:24;100179.91;;;23.60;46.47
42431;BME280;28070;47.462;19.036;2022-08-05T01:28:23;100185.16;;;23.62;46.43
42431;BME280;28070;47.462;19.036;2022-08-05T01:30:58;100188.84;;;23.61;46.76
42431;BME280;28070;47.462;19.036;2022-08-05T01:33:32;100187.41;;;23.57;46.95
42431;BME280;28070;47.462;19.036;2022-08-05T01:36:07;100187.97;;;23.51;47.48
42431;BME280;28070;47.462;19.036;2022-08-05T01:38:43;100194.03;;;23.43;47.77
42431;BME280;28070;47.462;19.036;2022-08-05T01:41:17;100194.97;;;23.32;48.38
42431;BME280;28070;47.462;19.036;2022-08-05T01:43:50;100189.28;;;23.35;48.33
42431;BME280;28070;47.462;19.036;2022-08-05T01:46:20;100194.44;;;23.48;47.49
42431;BME280;28070;47.462;19.036;2022-08-05T01:49:11;100193.75;;;23.46;47.23
42431;BME280;28070;47.462;19.036;2022-08-05T01:51:55;100188.00;;;23.30;48.54
42431;BME280;28070;47.462;19.036;2022-08-05T01:54:28;100195.00;;;23.11;49.01
42431;BME280;28070;47.462;19.036;2022-08-05T01:56:59;100193.00;;;23.04;49.35
42431;BME280;28070;47.462;19.036;2022-08-05T01:59:50;100196.13;;;23.09;49.02
42431;BME280;28070;47.462;19.036;2022-08-05T02:02:20;100193.44;;;23.09;48.18
42431;BME280;28070;47.462;19.036;2022-08-05T02:04:57;100194.13;;;23.01;50.05
42431;BME280;28070;47.462;19.036;2022-08-05T02:07:29;100190.78;;;22.88;50.26
42431;BME280;28070;47.462;19.036;2022-08-05T02:10:00;100196.16;;;22.88;49.91
42431;BME280;28070;47.462;19.036;2022-08-05T02:12:35;100191.41;;;22.80;50.19
42431;BME280;28070;47.462;19.036;2022-08-05T02:15:11;100187.47;;;22.84;50.57
42431;BME280;28070;47.462;19.036;2022-08-05T02:17:50;100202.31;;;22.79;50.33
42431;BME280;28070;47.462;19.036;2022-08-05T02:20:48;100200.13;;;22.73;50.63
42431;BME280;28070;47.462;19.036;2022-08-05T02:23:21;100183.31;;;22.59;51.07
42431;BME280;28070;47.462;19.036;2022-08-05T02:25:51;100188.88;;;22.47;52.11
42431;BME280;28070;47.462;19.036;2022-08-05T02:28:24;100185.66;;;22.32;52.59
42431;BME280;28070;47.462;19.036;2022-08-05T02:31:01;100181.53;;;22.28;52.65
42431;BME280;28070;47.462;19.036;2022-08-05T02:33:37;100187.34;;;22.33;52.77
42431;BME280;28070;47.462;19.036;2022-08-05T02:36:10;100176.13;;;22.28;53.03
42431;BME280;28070;47.462;19.036;2022-08-05T02:38:44;100179.28;;;22.33;52.96
42431;BME280;28070;47.462;19.036;2022-08-05T02:41:20;100175.19;;;22.18;53.82
42431;BME280;28070;47.462;19.036;2022-08-05T02:43:55;100179.84;;;22.16;53.96
42431;BME280;28070;47.462;19.036;2022-08-05T02:46:33;100172.19;;;22.11;54.22
42431;BME280;28070;47.462;19.036;2022-08-05T02:49:23;100182.81;;;22.01;54.69
42431;BME280;28070;47.462;19.036;2022-08-05T02:51:53;100181.34;;;21.97;54.79
42431;BME280;28070;47.462;19.036;2022-08-05T02:54:30;100178.78;;;21.96;54.26
42431;BME280;28070;47.462;19.036;2022-08-05T02:57:04;100170.25;;;21.91;54.62
42431;BME280;28070;47.462;19.036;2022-08-05T02:59:54;100171.69;;;21.95;54.18
42431;BME280;28070;47.462;19.036;2022-08-05T03:02:27;100169.00;;;22.06;53.18
42431;BME280;28070;47.462;19.036;2022-08-05T03:04:56;100171.78;;;22.04;54.18
42431;BME280;28070;47.462;19.036;2022-08-05T03:07:26;100171.78;;;22.04;54.03
42431;BME280;28070;47.462;19.036;2022-08-05T03:10:14;100172.53;;;21.95;54.34
42431;BME280;28070;47.462;19.036;2022-08-05T03:12:51;100165.13;;;21.88;54.57
42431;BME280;28070;47.462;19.036;2022-08-05T03:15:19;100170.16;;;21.81;55.13
42431;BME280;28070;47.462;19.036;2022-08-05T03:17:51;100163.91;;;21.81;55.06
42431;BME280;28070;47.462;19.036;2022-08-05T03:20:23;100167.00;;;21.76;55.53
42431;BME280;28070;47.462;19.036;2022-08-05T03:22:53;100163.72;;;21.72;55.66
42431;BME280;28070;47.462;19.036;2022-08-05T03:25:25;100164.31;;;21.76;55.65
42431;BME280;28070;47.462;19.036;2022-08-05T03:28:13;100154.38;;;21.88;55.47
42431;BME280;28070;47.462;19.036;2022-08-05T03:30:45;100153.97;;;21.92;53.36
42431;BME280;28070;47.462;19.036;2022-08-05T03:33:16;100156.53;;;21.94;54.80
42431;BME280;28070;47.462;19.036;2022-08-05T03:35:45;100155.41;;;21.96;54.57
42431;BME280;28070;47.462;19.036;2022-08-05T03:38:16;100155.94;;;21.90;54.93
42431;BME280;28070;47.462;19.036;2022-08-05T03:40:59;100159.22;;;21.94;55.02
42431;BME280;28070;47.462;19.036;2022-08-05T03:43:36;100161.59;;;21.87;55.54
42431;BME280;28070;47.462;19.036;2022-08-05T03:46:25;100163.16;;;21.90;55.77
42431;BME280;28070;47.462;19.036;2022-08-05T03:48:59;100158.41;;;21.82;56.15
42431;BME280;28070;47.462;19.036;2022-08-05T03:51:30;100158.78;;;21.78;56.13
42431;BME280;28070;47.462;19.036;2022-08-05T03:54:25;100166.41;;;21.72;55.94
42431;BME280;28070;47.462;19.036;2022-08-05T03:57:20;100166.41;;;21.72;56.25
42431;BME280;28070;47.462;19.036;2022-08-05T04:00:10;100158.91;;;21.76;55.77
42431;BME280;28070;47.462;19.036;2022-08-05T04:02:43;100158.91;;;21.76;56.23
42431;BME280;28070;47.462;19.036;2022-08-05T04:05:29;100166.59;;;21.81;55.95
42431;BME280;28070;47.462;19.036;2022-08-05T04:08:01;100171.25;;;21.79;56.50
42431;BME280;28070;47.462;19.036;2022-08-05T04:10:48;100166.00;;;21.77;56.49
42431;BME280;28070;47.462;19.036;2022-08-05T04:13:17;100161.34;;;21.79;56.69
42431;BME280;28070;47.462;19.036;2022-08-05T04:15:48;100167.84;;;21.77;56.97
42431;BME280;28070;47.462;19.036;2022-08-05T04:18:30;100161.72;;;21.86;55.81
42431;BME280;28070;47.462;19.036;2022-08-05T04:21:02;100163.41;;;21.98;56.14
42431;BME280;28070;47.462;19.036;2022-08-05T04:23:32;100159.69;;;22.10;54.45
42431;BME280;28070;47.462;19.036;2022-08-05T04:26:20;100164.53;;;22.27;53.73
42431;BME280;28070;47.462;19.036;2022-08-05T04:28:49;100154.84;;;22.36;53.36
42431;BME280;28070;47.462;19.036;2022-08-05T04:31:18;100163.81;;;22.46;53.27
42431;BME280;28070;47.462;19.036;2022-08-05T04:33:46;100158.75;;;22.53;53.55
42431;BME280;28070;47.462;19.036;2022-08-05T04:36:36;100164.59;;;22.58;54.83
42431;BME280;28070;47.462;19.036;2022-08-05T04:39:12;100158.38;;;22.57;55.12
42431;BME280;28070;47.462;19.036;2022-08-05T04:41:40;100168.75;;;22.62;53.94
42431;BME280;28070;47.462;19.036;2022-08-05T04:44:11;100162.13;;;22.66;53.93
42431;BME280;28070;47.462;19.036;2022-08-05T04:46:39;100166.81;;;22.74;53.75
42431;BME280;28070;47.462;19.036;2022-08-05T04:49:12;100163.88;;;22.77;53.43
42431;BME280;28070;47.462;19.036;2022-08-05T04:51:43;100164.31;;;22.82;53.35
42431;BME280;28070;47.462;19.036;2022-08-05T04:54:11;100169.09;;;22.89;53.79
42431;BME280;28070;47.462;19.036;2022-08-05T04:56:40;100168.41;;;22.97;53.16
42431;BME280;28070;47.462;19.036;2022-08-05T04:59:09;100165.34;;;23.02;52.57
42431;BME280;28070;47.462;19.036;2022-08-05T05:01:57;100170.75;;;23.11;52.56
42431;BME280;28070;47.462;19.036;2022-08-05T05:04:46;100169.09;;;23.20;52.05
42431;BME280;28070;47.462;19.036;2022-08-05T05:07:17;100162.34;;;23.26;51.68
42431;BME280;28070;47.462;19.036;2022-08-05T05:09:55;100159.50;;;23.37;51.49
42431;BME280;28070;47.462;19.036;2022-08-05T05:12:23;100154.31;;;23.45;51.30
42431;BME280;28070;47.462;19.036;2022-08-05T05:14:53;100163.28;;;23.55;50.61
42431;BME280;28070;47.462;19.036;2022-08-05T05:17:21;100163.47;;;23.63;50.61
42431;BME280;28070;47.462;19.036;2022-08-05T05:20:11;100156.66;;;23.69;50.45
42431;BME280;28070;47.462;19.036;2022-08-05T05:22:41;100156.94;;;23.75;50.23
42431;BME280;28070;47.462;19.036;2022-08-05T05:25:10;100159.97;;;23.82;50.02
42431;BME280;28070;47.462;19.036;2022-08-05T05:27:43;100160.28;;;23.89;49.87
42431;BME280;28070;47.462;19.036;2022-08-05T05:30:22;100161.81;;;23.91;50.19
42431;BME280;28070;47.462;19.036;2022-08-05T05:32:57;100156.41;;;24.01;49.50
42431;BME280;28070;47.462;19.036;2022-08-05T05:35:42;100149.91;;;24.13;49.16
42431;BME280;28070;47.462;19.036;2022-08-05T05:38:12;100148.06;;;24.23;49.30
42431;BME280;28070;47.462;19.036;2022-08-05T05:40:53;100153.03;;;24.28;48.21
42431;BME280;28070;47.462;19.036;2022-08-05T05:43:22;100155.91;;;24.36;46.85
42431;BME280;28070;47.462;19.036;2022-08-05T05:46:11;100155.91;;;24.46;45.42
42431;BME280;28070;47.462;19.036;2022-08-05T05:48:44;100155.03;;;24.55;44.60
42431;BME280;28070;47.462;19.036;2022-08-05T05:51:18;100149.47;;;24.66;44.51
42431;BME280;28070;47.462;19.036;2022-08-05T05:53:48;100146.88;;;24.74;43.92
42431;BME280;28070;47.462;19.036;2022-08-05T05:56:24;100143.47;;;24.82;43.79
42431;BME280;28070;47.462;19.036;2022-08-05T05:59:00;100150.13;;;24.87;42.93
42431;BME280;28070;47.462;19.036;2022-08-05T06:01:32;100152.09;;;24.95;42.52
42431;BME280;28070;47.462;19.036;2022-08-05T06:04:05;100151.25;;;25.04;42.20
42431;BME280;28070;47.462;19.036;2022-08-05T06:06:37;100150.78;;;25.18;42.04
42431;BME280;28070;47.462;19.036;2022-08-05T06:09:08;100149.84;;;25.28;41.46
42431;BME280;28070;47.462;19.036;2022-08-05T06:11:51;100143.31;;;25.30;41.60
42431;BME280;28070;47.462;19.036;2022-08-05T06:14:28;100142.56;;;25.38;41.44
42431;BME280;28070;47.462;19.036;2022-08-05T06:16:56;100152.94;;;25.42;41.04
42431;BME280;28070;47.462;19.036;2022-08-05T06:19:25;100156.44;;;25.52;40.78
42431;BME280;28070;47.462;19.036;2022-08-05T06:22:01;100153.28;;;25.57;39.99
42431;BME280;28070;47.462;19.036;2022-08-05T06:24:31;100158.09;;;25.63;40.02
42431;BME280;28070;47.462;19.036;2022-08-05T06:27:00;100157.53;;;25.69;40.00
42431;BME280;28070;47.462;19.036;2022-08-05T06:29:30;100147.09;;;25.74;39.89
42431;BME280;28070;47.462;19.036;2022-08-05T06:32:17;100150.28;;;25.88;39.74
42431;BME280;28070;47.462;19.036;2022-08-05T06:34:52;100157.78;;;25.94;39.66
42431;BME280;28070;47.462;19.036;2022-08-05T06:37:23;100145.81;;;25.96;39.15
42431;BME280;28070;47.462;19.036;2022-08-05T06:40:13;100156.16;;;26.01;39.33
42431;BME280;28070;47.462;19.036;2022-08-05T06:42:48;100157.09;;;26.09;39.76
42431;BME280;28070;47.462;19.036;2022-08-05T06:45:19;100147.91;;;26.20;38.45
42431;BME280;28070;47.462;19.036;2022-08-05T06:48:07;100151.81;;;26.26;37.79
42431;BME280;28070;47.462;19.036;2022-08-05T06:50:56;100153.59;;;26.35;37.87
42431;BME280;28070;47.462;19.036;2022-08-05T06:53:26;100155.25;;;26.46;38.51
42431;BME280;28070;47.462;19.036;2022-08-05T06:55:58;100154.69;;;26.60;37.88
42431;BME280;28070;47.462;19.036;2022-08-05T06:58:26;100156.59;;;26.67;37.24
42431;BME280;28070;47.462;19.036;2022-08-05T07:01:03;100153.44;;;26.72;37.53
42431;BME280;28070;47.462;19.036;2022-08-05T07:03:32;100152.94;;;26.77;36.75
42431;BME280;28070;47.462;19.036;2022-08-05T07:06:01;100154.34;;;26.81;36.36
42431;BME280;28070;47.462;19.036;2022-08-05T07:08:40;100149.59;;;26.83;37.11
42431;BME280;28070;47.462;19.036;2022-08-05T07:11:11;100149.88;;;26.97;36.15
42431;BME280;28070;47.462;19.036;2022-08-05T07:13:41;100153.88;;;27.11;35.83
42431;BME280;28070;47.462;19.036;2022-08-05T07:16:27;100151.22;;;27.19;35.55
42431;BME280;28070;47.462;19.036;2022-08-05T07:19:33;100153.63;;;27.31;34.75
42431;BME280;28070;47.462;19.036;2022-08-05T07:22:22;100150.28;;;27.37;34.96
42431;BME280;28070;47.462;19.036;2022-08-05T07:24:57;100154.69;;;27.38;35.18
42431;BME280;28070;47.462;19.036;2022-08-05T07:27:47;100148.56;;;27.36;35.01
42431;BME280;28070;47.462;19.036;2022-08-05T07:30:29;100143.19;;;27.52;35.16
42431;BME280;28070;47.462;19.036;2022-08-05T07:33:00;100148.00;;;27.58;34.60
42431;BME280;28070;47.462;19.036;2022-08-05T07:35:35;100141.53;;;27.59;35.19
42431;BME280;28070;47.462;19.036;2022-08-05T07:38:24;100142.06;;;27.63;34.79
42431;BME280;28070;47.462;19.036;2022-08-05T07:41:02;100136.69;;;27.71;34.58
42431;BME280;28070;47.462;19.036;2022-08-05T07:43:53;100141.66;;;27.83;34.29
42431;BME280;28070;47.462;19.036;2022-08-05T07:46:23;100139.94;;;27.91;34.29
42431;BME280;28070;47.462;19.036;2022-08-05T07:48:53;100143.03;;;27.96;34.20
42431;BME280;28070;47.462;19.036;2022-08-05T07:51:35;100137.59;;;28.04;33.75
42431;BME280;28070;47.462;19.036;2022-08-05T07:54:07;100133.03;;;28.12;33.61
42431;BME280;28070;47.462;19.036;2022-08-05T07:56:38;100132.16;;;28.20;33.91
42431;BME280;28070;47.462;19.036;2022-08-05T07:59:27;100142.25;;;28.28;34.02
42431;BME280;28070;47.462;19.036;2022-08-05T08:02:07;100135.97;;;28.35;33.77
42431;BME280;28070;47.462;19.036;2022-08-05T08:04:43;100135.09;;;28.43;33.65
42431;BME280;28070;47.462;19.036;2022-08-05T08:07:15;100146.16;;;28.50;33.45
42431;BME280;28070;47.462;19.036;2022-08-05T08:09:49;100141.72;;;28.57;32.95
42431;BME280;28070;47.462;19.036;2022-08-05T08:12:21;100141.72;;;28.65;32.75
42431;BME280;28070;47.462;19.036;2022-08-05T08:15:10;100136.47;;;28.71;32.58
42431;BME280;28070;47.462;19.036;2022-08-05T08:17:42;100136.28;;;28.89;31.87
42431;BME280;28070;47.462;19.036;2022-08-05T08:20:18;100133.03;;;28.94;32.54
42431;BME280;28070;47.462;19.036;2022-08-05T08:23:07;100138.44;;;29.02;32.42
42431;BME280;28070;47.462;19.036;2022-08-05T08:25:55;100134.88;;;29.10;31.88
42431;BME280;28070;47.462;19.036;2022-08-05T08:28:27;100128.91;;;29.14;31.63
42431;BME280;28070;47.462;19.036;2022-08-05T08:31:09;100129.19;;;29.27;31.97
42431;BME280;28070;47.462;19.036;2022-08-05T08:33:43;100130.00;;;29.36;31.58
42431;BME280;28070;47.462;19.036;2022-08-05T08:36:17;100128.25;;;29.43;31.46
42431;BME280;28070;47.462;19.036;2022-08-05T08:39:06;100127.41;;;29.51;31.22
42431;BME280;28070;47.462;19.036;2022-08-05T08:41:42;100137.41;;;29.58;30.86
42431;BME280;28070;47.462;19.036;2022-08-05T08:44:28;100126.84;;;29.64;30.35
42431;BME280;28070;47.462;19.036;2022-08-05T08:47:21;100131.19;;;29.73;30.57
42431;BME280;28070;47.462;19.036;2022-08-05T08:50:11;100127.41;;;29.82;30.98
42431;BME280;28070;47.462;19.036;2022-08-05T08:53:03;100131.41;;;29.94;30.94
42431;BME280;28070;47.462;19.036;2022-08-05T08:55:34;100138.13;;;30.14;30.45
42431;BME280;28070;47.462;19.036;2022-08-05T08:58:22;100125.94;;;30.25;29.88
42431;BME280;28070;47.462;19.036;2022-08-05T09:01:10;100118.25;;;30.29;29.70
42431;BME280;28070;47.462;19.036;2022-08-05T09:03:46;100122.59;;;30.38;29.02
42431;BME280;28070;47.462;19.036;2022-08-05T09:06:21;100126.66;;;30.42;29.36
42431;BME280;28070;47.462;19.036;2022-08-05T09:08:57;100131.91;;;30.43;28.40
42431;BME280;28070;47.462;19.036;2022-08-05T09:11:26;100123.03;;;30.50;28.16
42431;BME280;28070;47.462;19.036;2022-08-05T09:14:15;100123.13;;;30.56;28.38
42431;BME280;28070;47.462;19.036;2022-08-05T09:17:06;100117.25;;;30.67;28.93
42431;BME280;28070;47.462;19.036;2022-08-05T09:19:37;100110.13;;;30.81;28.74
42431;BME280;28070;47.462;19.036;2022-08-05T09:22:26;100113.63;;;30.90;29.04
42431;BME280;28070;47.462;19.036;2022-08-05T09:24:59;100110.13;;;30.96;29.24
42431;BME280;28070;47.462;19.036;2022-08-05T09:27:39;100109.66;;;31.07;28.91
42431;BME280;28070;47.462;19.036;2022-08-05T09:30:27;100098.34;;;31.10;28.65
42431;BME280;28070;47.462;19.036;2022-08-05T09:33:00;100111.44;;;31.15;28.27
42431;BME280;28070;47.462;19.036;2022-08-05T09:35:31;100102.72;;;31.19;28.40
42431;BME280;28070;47.462;19.036;2022-08-05T09:38:00;100096.31;;;31.27;28.10
42431;BME280;28070;47.462;19.036;2022-08-05T09:40:43;100098.84;;;31.28;28.17
42431;BME280;28070;47.462;19.036;2022-08-05T09:43:27;100098.09;;;31.34;28.40
42431;BME280;28070;47.462;19.036;2022-08-05T09:46:22;100086.88;;;31.44;28.13
42431;BME280;28070;47.462;19.036;2022-08-05T09:48:55;100096.91;;;31.58;27.75
42431;BME280;28070;47.462;19.036;2022-08-05T09:51:44;100087.03;;;31.57;27.35
42431;BME280;28070;47.462;19.036;2022-08-05T09:54:16;100090.22;;;31.61;27.38
42431;BME280;28070;47.462;19.036;2022-08-05T09:56:56;100085.03;;;31.66;27.28
42431;BME280;28070;47.462;19.036;2022-08-05T09:59:27;100085.09;;;31.73;27.05
42431;BME280;28070;47.462;19.036;2022-08-05T10:02:03;100074.34;;;31.86;26.91
42431;BME280;28070;47.462;19.036;2022-08-05T10:04:35;100071.50;;;31.94;26.80
42431;BME280;28070;47.462;19.036;2022-08-05T10:07:06;100076.75;;;31.96;26.58
42431;BME280;28070;47.462;19.036;2022-08-05T10:09:55;100068.28;;;32.12;26.78
42431;BME280;28070;47.462;19.036;2022-08-05T10:12:45;100066.72;;;32.24;26.29
42431;BME280;28070;47.462;19.036;2022-08-05T10:15:21;100061.59;;;32.36;26.58
42431;BME280;28070;47.462;19.036;2022-08-05T10:18:12;100049.06;;;32.48;26.51
42431;BME280;28070;47.462;19.036;2022-08-05T10:20:45;100062.94;;;32.46;26.21
42431;BME280;28070;47.462;19.036;2022-08-05T10:23:17;100055.34;;;32.42;26.10
42431;BME280;28070;47.462;19.036;2022-08-05T10:26:07;100058.38;;;32.54;26.29
42431;BME280;28070;47.462;19.036;2022-08-05T10:28:41;100047.44;;;32.54;25.85
42431;BME280;28070;47.462;19.036;2022-08-05T10:31:11;100052.50;;;32.57;26.09
42431;BME280;28070;47.462;19.036;2022-08-05T10:34:00;100045.44;;;32.69;26.44
42431;BME280;28070;47.462;19.036;2022-08-05T10:36:29;100043.44;;;32.84;26.34
42431;BME280;28070;47.462;19.036;2022-08-05T10:39:03;100047.00;;;32.85;25.51
42431;BME280;28070;47.462;19.036;2022-08-05T10:41:45;100036.31;;;32.90;25.73
42431;BME280;28070;47.462;19.036;2022-08-05T10:44:17;100040.56;;;32.99;25.77
42431;BME280;28070;47.462;19.036;2022-08-05T10:46:47;100040.63;;;33.05;25.57
42431;BME280;28070;47.462;19.036;2022-08-05T10:49:22;100042.09;;;33.08;25.51
42431;BME280;28070;47.462;19.036;2022-08-05T10:51:59;100035.56;;;33.09;24.87
42431;BME280;28070;47.462;19.036;2022-08-05T10:55:02;100041.47;;;33.13;25.33
42431;BME280;28070;47.462;19.036;2022-08-05T10:57:31;100035.41;;;33.17;25.22
42431;BME280;28070;47.462;19.036;2022-08-05T11:00:13;100027.63;;;33.21;25.30
42431;BME280;28070;47.462;19.036;2022-08-05T11:03:11;100027.44;;;33.29;24.67
42431;BME280;28070;47.462;19.036;2022-08-05T11:06:03;100031.06;;;33.36;24.95
42431;BME280;28070;47.462;19.036;2022-08-05T11:09:17;100025.00;;;33.47;24.45
42431;BME280;28070;47.462;19.036;2022-08-05T11:12:42;100028.16;;;33.51;24.03
42431;BME280;28070;47.462;19.036;2022-08-05T11:15:23;100018.06;;;33.64;23.80
42431;BME280;28070;47.462;19.036;2022-08-05T11:18:24;100007.97;;;33.78;23.88
42431;BME280;28070;47.462;19.036;2022-08-05T11:20:58;100015.81;;;33.81;23.33
42431;BME280;28070;47.462;19.036;2022-08-05T11:23:41;100021.72;;;33.91;23.27
42431;BME280;28070;47.462;19.036;2022-08-05T11:26:29;100012.03;;;34.02;23.04
42431;BME280;28070;47.462;19.036;2022-08-05T11:29:02;100015.41;;;34.17;23.23
42431;BME280;28070;47.462;19.036;2022-08-05T11:31:41;100009.50;;;34.34;22.93
42431;BME280;28070;47.462;19.036;2022-08-05T11:34:36;100011.81;;;34.50;23.46
42431;BME280;28070;47.462;19.036;2022-08-05T11:37:05;100014.34;;;34.58;22.56
42431;BME280;28070;47.462;19.036;2022-08-05T11:39:53;100004.00;;;34.53;22.47
42431;BME280;28070;47.462;19.036;2022-08-05T11:42:32;100011.19;;;34.48;22.66
42431;BME280;28070;47.462;19.036;2022-08-05T11:45:08;100016.66;;;34.61;22.58
42431;BME280;28070;47.462;19.036;2022-08-05T11:47:56;100013.47;;;34.64;22.67
42431;BME280;28070;47.462;19.036;2022-08-05T11:50:25;100019.59;;;34.66;22.37
42431;BME280;28070;47.462;19.036;2022-08-05T11:52:54;100016.44;;;34.69;22.36
42431;BME280;28070;47.462;19.036;2022-08-05T11:55:24;100021.66;;;34.97;22.08
42431;BME280;28070;47.462;19.036;2022-08-05T11:58:02;100024.06;;;35.25;22.26
42431;BME280;28070;47.462;19.036;2022-08-05T12:00:38;100012.47;;;35.23;21.90
42431;BME280;28070;47.462;19.036;2022-08-05T12:03:16;100023.41;;;35.36;21.54
42431;BME280;28070;47.462;19.036;2022-08-05T12:05:59;100017.22;;;35.48;21.45
42431;BME280;28070;47.462;19.036;2022-08-05T12:08:27;100003.75;;;35.71;21.41
42431;BME280;28070;47.462;19.036;2022-08-05T12:10:59;100004.66;;;35.96;21.13
42431;BME280;28070;47.462;19.036;2022-08-05T12:13:32;100008.28;;;36.15;20.97
42431;BME280;28070;47.462;19.036;2022-08-05T12:16:18;100002.00;;;36.08;20.79
42431;BME280;28070;47.462;19.036;2022-08-05T12:18:53;100004.69;;;36.15;20.35
42431;BME280;28070;47.462;19.036;2022-08-05T12:21:23;99999.75;;;36.48;20.52
42431;BME280;28070;47.462;19.036;2022-08-05T12:23:57;99998.31;;;36.64;20.45
42431;BME280;28070;47.462;19.036;2022-08-05T12:26:32;99988.47;;;36.75;19.84
42431;BME280;28070;47.462;19.036;2022-08-05T12:29:03;99989.66;;;36.79;20.31
42431;BME280;28070;47.462;19.036;2022-08-05T12:31:37;99994.22;;;36.92;19.59
42431;BME280;28070;47.462;19.036;2022-08-05T12:34:17;99992.16;;;36.87;19.65
42431;BME280;28070;47.462;19.036;2022-08-05T12:36:50;99994.09;;;37.17;19.65
42431;BME280;28070;47.462;19.036;2022-08-05T12:39:20;99993.78;;;37.25;19.08
42431;BME280;28070;47.462;19.036;2022-08-05T12:42:08;99992.88;;;36.58;19.68
42431;BME280;28070;47.462;19.036;2022-08-05T12:44:41;99993.22;;;36.86;19.38
42431;BME280;28070;47.462;19.036;2022-08-05T12:47:12;99987.91;;;36.66;19.72
42431;BME280;28070;47.462;19.036;2022-08-05T12:49:44;99989.72;;;36.97;19.44
42431;BME280;28070;47.462;19.036;2022-08-05T12:52:32;99989.06;;;37.13;18.99
42431;BME280;28070;47.462;19.036;2022-08-05T12:55:19;99988.88;;;37.57;19.27
42431;BME280;28070;47.462;19.036;2022-08-05T12:57:50;99990.25;;;37.66;18.47
42431;BME280;28070;47.462;19.036;2022-08-05T13:00:43;99980.16;;;37.60;18.89
42431;BME280;28070;47.462;19.036;2022-08-05T13:03:35;99973.81;;;37.71;18.41
42431;BME280;28070;47.462;19.036;2022-08-05T13:06:09;99971.97;;;37.83;18.79
42431;BME280;28070;47.462;19.036;2022-08-05T13:08:39;99968.16;;;38.19;18.81
42431;BME280;28070;47.462;19.036;2022-08-05T13:11:17;99969.25;;;38.18;18.67
42431;BME280;28070;47.462;19.036;2022-08-05T13:14:20;99960.03;;;38.36;18.75
42431;BME280;28070;47.462;19.036;2022-08-05T13:17:06;99958.09;;;38.13;18.51
42431;BME280;28070;47.462;19.036;2022-08-05T13:19:37;99957.88;;;38.38;18.97
42431;BME280;28070;47.462;19.036;2022-08-05T13:22:18;99954.25;;;38.14;18.64
42431;BME280;28070;47.462;19.036;2022-08-05T13:24:55;99949.47;;;38.45;19.18
42431;BME280;28070;47.462;19.036;2022-08-05T13:27:33;99951.38;;;38.44;18.66
42431;BME280;28070;47.462;19.036;2022-08-05T13:30:05;99956.53;;;38.76;18.30
42431;BME280;28070;47.462;19.036;2022-08-05T13:32:54;99947.41;;;38.17;18.77
42431;BME280;28070;47.462;19.036;2022-08-05T13:35:29;99934.00;;;38.32;18.10